sensor_id;sensor_type;location;lat;lon;timestamp;P1;durP1;ratioP1;P2;durP2;ratioP2
6983;SDS011;3532;51.118;7.210;2023-02-28T00:00:47;3.83;;;3.20;;
6983;SDS011;3532;51.118;7.210;2023-02-28T00:03:13;5.37;;;3.40;;
6983;SDS011;3532;51.118;7.210;2023-02-28T00:05:38;4.23;;;3.83;;
6983;SDS011;3532;51.118;7.210;2023-02-28T00:08:04;7.37;;;3.40;;
6983;SDS011;3532;51.118;7.210;2023-02-28T00:10:30;4.07;;;3.67;;
6983;SDS011;3532;51.118;7.210;2023-02-28T00:12:59;4.97;;;3.35;;
6983;SDS011;3532;51.118;7.210;2023-02-28T00:15:26;4.82;;;3.40;;
6983;SDS011;3532;51.118;7.210;2023-02-28T00:17:51;8.17;;;4.37;;
6983;SDS011;3532;51.118;7.210;2023-02-28T00:20:16;3.67;;;3.30;;
6983;SDS011;3532;51.118;7.210;2023-02-28T00:22:43;3.47;;;3.17;;
6983;SDS011;3532;51.118;7.210;2023-02-28T00:25:11;3.38;;;3.08;;
6983;SDS011;3532;51.118;7.210;2023-02-28T00:27:38;4.30;;;3.30;;
6983;SDS011;3532;51.118;7.210;2023-02-28T00:30:04;3.95;;;3.40;;
6983;SDS011;3532;51.118;7.210;2023-02-28T00:32:31;3.92;;;2.95;;
6983;SDS011;3532;51.118;7.210;2023-02-28T00:34:56;5.53;;;4.20;;
6983;SDS011;3532;51.118;7.210;2023-02-28T00:37:21;4.50;;;4.17;;
6983;SDS011;3532;51.118;7.210;2023-02-28T00:39:47;5.03;;;4.10;;
6983;SDS011;3532;51.118;7.210;2023-02-28T00:42:12;9.63;;;3.83;;
6983;SDS011;3532;51.118;7.210;2023-02-28T00:44:38;6.43;;;3.97;;
6983;SDS011;3532;51.118;7.210;2023-02-28T00:47:03;4.20;;;3.70;;
6983;SDS011;3532;51.118;7.210;2023-02-28T00:49:29;4.03;;;3.63;;
6983;SDS011;3532;51.118;7.210;2023-02-28T00:51:54;3.47;;;3.17;;
6983;SDS011;3532;51.118;7.210;2023-02-28T00:54:20;6.67;;;3.77;;
6983;SDS011;3532;51.118;7.210;2023-02-28T00:56:46;3.83;;;3.43;;
6983;SDS011;3532;51.118;7.210;2023-02-28T00:59:11;3.70;;;3.10;;
6983;SDS011;3532;51.118;7.210;2023-02-28T01:01:37;4.38;;;3.40;;
6983;SDS011;3532;51.118;7.210;2023-02-28T01:04:04;4.83;;;3.00;;
6983;SDS011;3532;51.118;7.210;2023-02-28T01:06:30;4.15;;;3.28;;
6983;SDS011;3532;51.118;7.210;2023-02-28T01:08:55;4.73;;;3.20;;
6983;SDS011;3532;51.118;7.210;2023-02-28T01:11:20;4.53;;;3.37;;
6983;SDS011;3532;51.118;7.210;2023-02-28T01:13:46;3.57;;;3.27;;
6983;SDS011;3532;51.118;7.210;2023-02-28T01:16:11;4.57;;;3.20;;
6983;SDS011;3532;51.118;7.210;2023-02-28T01:18:37;3.10;;;2.80;;
6983;SDS011;3532;51.118;7.210;2023-02-28T01:21:10;4.60;;;3.40;;
6983;SDS011;3532;51.118;7.210;2023-02-28T01:23:37;4.07;;;3.55;;
6983;SDS011;3532;51.118;7.210;2023-02-28T01:26:05;4.72;;;3.63;;
6983;SDS011;3532;51.118;7.210;2023-02-28T01:28:31;4.30;;;3.63;;
6983;SDS011;3532;51.118;7.210;2023-02-28T01:30:56;4.10;;;3.70;;
6983;SDS011;3532;51.118;7.210;2023-02-28T01:33:22;4.10;;;3.80;;
6983;SDS011;3532;51.118;7.210;2023-02-28T01:35:47;4.00;;;3.70;;
6983;SDS011;3532;51.118;7.210;2023-02-28T01:38:12;5.60;;;3.50;;
6983;SDS011;3532;51.118;7.210;2023-02-28T01:40:38;3.90;;;3.53;;
6983;SDS011;3532;51.118;7.210;2023-02-28T01:43:04;6.20;;;3.60;;
6983;SDS011;3532;51.118;7.210;2023-02-28T01:45:34;5.22;;;3.67;;
6983;SDS011;3532;51.118;7.210;2023-02-28T01:48:04;4.55;;;3.47;;
6983;SDS011;3532;51.118;7.210;2023-02-28T01:50:34;5.05;;;3.90;;
6983;SDS011;3532;51.118;7.210;2023-02-28T01:53:02;4.30;;;3.65;;
6983;SDS011;3532;51.118;7.210;2023-02-28T01:55:29;4.22;;;3.72;;
6983;SDS011;3532;51.118;7.210;2023-02-28T01:57:57;4.65;;;3.30;;
6983;SDS011;3532;51.118;7.210;2023-02-28T02:00:24;7.07;;;3.85;;
6983;SDS011;3532;51.118;7.210;2023-02-28T02:02:53;3.70;;;3.40;;
6983;SDS011;3532;51.118;7.210;2023-02-28T02:05:22;6.47;;;3.35;;
6983;SDS011;3532;51.118;7.210;2023-02-28T02:07:55;5.63;;;3.55;;
6983;SDS011;3532;51.118;7.210;2023-02-28T02:16:09;5.40;;;4.07;;
6983;SDS011;3532;51.118;7.210;2023-02-28T02:18:38;6.13;;;3.00;;
6983;SDS011;3532;51.118;7.210;2023-02-28T02:26:48;3.35;;;3.05;;
6983;SDS011;3532;51.118;7.210;2023-02-28T02:29:48;5.35;;;3.53;;
6983;SDS011;3532;51.118;7.210;2023-02-28T02:35:30;4.85;;;3.67;;
6983;SDS011;3532;51.118;7.210;2023-02-28T02:40:56;4.90;;;3.50;;
6983;SDS011;3532;51.118;7.210;2023-02-28T02:43:29;6.05;;;3.95;;
6983;SDS011;3532;51.118;7.210;2023-02-28T02:46:04;4.45;;;3.38;;
6983;SDS011;3532;51.118;7.210;2023-02-28T02:48:34;4.15;;;3.70;;
6983;SDS011;3532;51.118;7.210;2023-02-28T02:51:01;4.00;;;3.55;;
6983;SDS011;3532;51.118;7.210;2023-02-28T02:53:34;4.47;;;3.97;;
6983;SDS011;3532;51.118;7.210;2023-02-28T02:56:02;5.53;;;3.85;;
6983;SDS011;3532;51.118;7.210;2023-02-28T02:58:29;3.83;;;3.53;;
6983;SDS011;3532;51.118;7.210;2023-02-28T03:00:57;4.35;;;3.95;;
6983;SDS011;3532;51.118;7.210;2023-02-28T03:03:24;6.53;;;3.63;;
6983;SDS011;3532;51.118;7.210;2023-02-28T03:05:59;3.88;;;3.55;;
6983;SDS011;3532;51.118;7.210;2023-02-28T03:08:25;3.75;;;3.30;;
6983;SDS011;3532;51.118;7.210;2023-02-28T03:10:52;6.40;;;3.45;;
6983;SDS011;3532;51.118;7.210;2023-02-28T03:27:37;4.13;;;3.55;;
6983;SDS011;3532;51.118;7.210;2023-02-28T03:33:19;5.68;;;3.78;;
6983;SDS011;3532;51.118;7.210;2023-02-28T03:35:49;3.97;;;3.53;;
6983;SDS011;3532;51.118;7.210;2023-02-28T03:38:26;4.15;;;3.85;;
6983;SDS011;3532;51.118;7.210;2023-02-28T03:40:56;4.10;;;3.47;;
6983;SDS011;3532;51.118;7.210;2023-02-28T03:43:35;4.43;;;3.63;;
6983;SDS011;3532;51.118;7.210;2023-02-28T03:46:05;5.30;;;3.85;;
6983;SDS011;3532;51.118;7.210;2023-02-28T03:48:45;3.65;;;3.35;;
6983;SDS011;3532;51.118;7.210;2023-02-28T03:51:17;3.50;;;3.20;;
6983;SDS011;3532;51.118;7.210;2023-02-28T03:53:45;4.30;;;3.35;;
6983;SDS011;3532;51.118;7.210;2023-02-28T03:56:19;5.93;;;3.53;;
6983;SDS011;3532;51.118;7.210;2023-02-28T03:58:57;5.47;;;3.60;;
6983;SDS011;3532;51.118;7.210;2023-02-28T04:01:28;4.07;;;3.63;;
6983;SDS011;3532;51.118;7.210;2023-02-28T04:03:56;4.05;;;3.70;;
6983;SDS011;3532;51.118;7.210;2023-02-28T04:06:22;3.33;;;3.03;;
6983;SDS011;3532;51.118;7.210;2023-02-28T04:08:48;4.70;;;2.80;;
6983;SDS011;3532;51.118;7.210;2023-02-28T04:11:18;4.85;;;3.25;;
6983;SDS011;3532;51.118;7.210;2023-02-28T04:13:46;4.05;;;3.70;;
6983;SDS011;3532;51.118;7.210;2023-02-28T04:16:11;4.80;;;3.40;;
6983;SDS011;3532;51.118;7.210;2023-02-28T04:18:40;3.80;;;3.50;;
6983;SDS011;3532;51.118;7.210;2023-02-28T04:21:08;3.38;;;3.17;;
6983;SDS011;3532;51.118;7.210;2023-02-28T04:23:33;6.83;;;3.50;;
6983;SDS011;3532;51.118;7.210;2023-02-28T04:25:58;4.87;;;3.80;;
6983;SDS011;3532;51.118;7.210;2023-02-28T04:28:24;6.90;;;4.03;;
6983;SDS011;3532;51.118;7.210;2023-02-28T04:30:59;3.40;;;3.10;;
6983;SDS011;3532;51.118;7.210;2023-02-28T04:33:27;4.32;;;3.30;;
6983;SDS011;3532;51.118;7.210;2023-02-28T04:36:03;4.80;;;3.67;;
6983;SDS011;3532;51.118;7.210;2023-02-28T04:38:31;5.70;;;3.20;;
6983;SDS011;3532;51.118;7.210;2023-02-28T04:40:58;3.70;;;3.40;;
6983;SDS011;3532;51.118;7.210;2023-02-28T04:43:23;3.85;;;3.45;;
6983;SDS011;3532;51.118;7.210;2023-02-28T04:45:50;4.07;;;3.65;;
6983;SDS011;3532;51.118;7.210;2023-02-28T04:48:15;4.37;;;3.63;;
6983;SDS011;3532;51.118;7.210;2023-02-28T04:50:41;4.40;;;3.30;;
6983;SDS011;3532;51.118;7.210;2023-02-28T04:53:06;4.67;;;3.83;;
6983;SDS011;3532;51.118;7.210;2023-02-28T04:55:31;4.13;;;3.50;;
6983;SDS011;3532;51.118;7.210;2023-02-28T04:57:56;3.77;;;3.47;;
6983;SDS011;3532;51.118;7.210;2023-02-28T05:00:22;3.80;;;3.40;;
6983;SDS011;3532;51.118;7.210;2023-02-28T05:02:48;4.33;;;3.60;;
6983;SDS011;3532;51.118;7.210;2023-02-28T05:05:13;3.70;;;3.40;;
6983;SDS011;3532;51.118;7.210;2023-02-28T05:07:43;4.57;;;3.58;;
6983;SDS011;3532;51.118;7.210;2023-02-28T05:10:08;3.87;;;3.57;;
6983;SDS011;3532;51.118;7.210;2023-02-28T05:12:35;4.10;;;3.72;;
6983;SDS011;3532;51.118;7.210;2023-02-28T05:15:00;3.47;;;3.17;;
6983;SDS011;3532;51.118;7.210;2023-02-28T05:17:26;3.50;;;3.20;;
6983;SDS011;3532;51.118;7.210;2023-02-28T05:19:52;3.83;;;3.43;;
6983;SDS011;3532;51.118;7.210;2023-02-28T05:22:17;4.00;;;3.10;;
6983;SDS011;3532;51.118;7.210;2023-02-28T05:24:42;4.30;;;3.63;;
6983;SDS011;3532;51.118;7.210;2023-02-28T05:27:08;3.60;;;3.30;;
6983;SDS011;3532;51.118;7.210;2023-02-28T05:29:34;3.40;;;3.10;;
6983;SDS011;3532;51.118;7.210;2023-02-28T05:31:59;3.40;;;3.10;;
6983;SDS011;3532;51.118;7.210;2023-02-28T05:34:24;4.97;;;3.80;;
6983;SDS011;3532;51.118;7.210;2023-02-28T05:36:50;4.17;;;3.70;;
6983;SDS011;3532;51.118;7.210;2023-02-28T05:39:15;4.43;;;4.03;;
6983;SDS011;3532;51.118;7.210;2023-02-28T05:41:41;5.43;;;3.60;;
6983;SDS011;3532;51.118;7.210;2023-02-28T05:44:07;6.22;;;4.05;;
6983;SDS011;3532;51.118;7.210;2023-02-28T05:46:32;4.13;;;3.73;;
6983;SDS011;3532;51.118;7.210;2023-02-28T05:48:58;4.47;;;4.03;;
6983;SDS011;3532;51.118;7.210;2023-02-28T05:51:25;4.43;;;4.00;;
6983;SDS011;3532;51.118;7.210;2023-02-28T05:53:50;4.60;;;3.83;;
6983;SDS011;3532;51.118;7.210;2023-02-28T05:56:16;4.00;;;3.60;;
6983;SDS011;3532;51.118;7.210;2023-02-28T05:58:41;3.97;;;3.67;;
6983;SDS011;3532;51.118;7.210;2023-02-28T06:01:30;4.17;;;3.87;;
6983;SDS011;3532;51.118;7.210;2023-02-28T06:04:01;3.92;;;3.60;;
6983;SDS011;3532;51.118;7.210;2023-02-28T06:06:27;4.35;;;3.95;;
6983;SDS011;3532;51.118;7.210;2023-02-28T06:08:52;4.53;;;4.13;;
6983;SDS011;3532;51.118;7.210;2023-02-28T06:11:18;4.00;;;3.60;;
6983;SDS011;3532;51.118;7.210;2023-02-28T06:13:45;4.38;;;3.97;;
6983;SDS011;3532;51.118;7.210;2023-02-28T06:16:10;3.80;;;3.50;;
6983;SDS011;3532;51.118;7.210;2023-02-28T06:18:36;4.93;;;4.47;;
6983;SDS011;3532;51.118;7.210;2023-02-28T06:21:01;5.43;;;4.47;;
6983;SDS011;3532;51.118;7.210;2023-02-28T06:23:27;4.40;;;4.00;;
6983;SDS011;3532;51.118;7.210;2023-02-28T06:25:52;4.30;;;3.93;;
6983;SDS011;3532;51.118;7.210;2023-02-28T06:28:18;3.80;;;3.50;;
6983;SDS011;3532;51.118;7.210;2023-02-28T06:30:43;4.27;;;3.80;;
6983;SDS011;3532;51.118;7.210;2023-02-28T06:33:09;4.03;;;3.33;;
6983;SDS011;3532;51.118;7.210;2023-02-28T06:35:34;3.80;;;3.50;;
6983;SDS011;3532;51.118;7.210;2023-02-28T06:38:00;3.53;;;3.33;;
6983;SDS011;3532;51.118;7.210;2023-02-28T06:40:25;3.50;;;3.30;;
6983;SDS011;3532;51.118;7.210;2023-02-28T06:42:51;3.50;;;3.20;;
6983;SDS011;3532;51.118;7.210;2023-02-28T06:45:16;3.57;;;3.37;;
6983;SDS011;3532;51.118;7.210;2023-02-28T06:47:42;4.10;;;3.70;;
6983;SDS011;3532;51.118;7.210;2023-02-28T06:50:09;4.00;;;3.70;;
6983;SDS011;3532;51.118;7.210;2023-02-28T06:52:35;5.32;;;3.85;;
6983;SDS011;3532;51.118;7.210;2023-02-28T06:55:04;4.47;;;4.07;;
6983;SDS011;3532;51.118;7.210;2023-02-28T06:57:31;4.18;;;3.67;;
6983;SDS011;3532;51.118;7.210;2023-02-28T07:00:00;4.45;;;4.05;;
6983;SDS011;3532;51.118;7.210;2023-02-28T07:02:28;3.90;;;3.58;;
6983;SDS011;3532;51.118;7.210;2023-02-28T07:04:53;6.80;;;3.50;;
6983;SDS011;3532;51.118;7.210;2023-02-28T07:07:19;4.10;;;3.80;;
6983;SDS011;3532;51.118;7.210;2023-02-28T07:09:44;4.40;;;4.00;;
6983;SDS011;3532;51.118;7.210;2023-02-28T07:12:10;4.27;;;3.80;;
6983;SDS011;3532;51.118;7.210;2023-02-28T07:14:36;4.47;;;4.13;;
6983;SDS011;3532;51.118;7.210;2023-02-28T07:17:01;3.72;;;3.20;;
6983;SDS011;3532;51.118;7.210;2023-02-28T07:19:27;4.37;;;3.50;;
6983;SDS011;3532;51.118;7.210;2023-02-28T07:21:52;3.60;;;3.20;;
6983;SDS011;3532;51.118;7.210;2023-02-28T07:24:18;3.57;;;3.10;;
6983;SDS011;3532;51.118;7.210;2023-02-28T07:26:43;4.17;;;3.60;;
6983;SDS011;3532;51.118;7.210;2023-02-28T07:29:08;3.57;;;3.27;;
6983;SDS011;3532;51.118;7.210;2023-02-28T07:31:34;3.73;;;3.43;;
6983;SDS011;3532;51.118;7.210;2023-02-28T07:33:59;3.70;;;3.37;;
6983;SDS011;3532;51.118;7.210;2023-02-28T07:36:24;4.03;;;3.00;;
6983;SDS011;3532;51.118;7.210;2023-02-28T07:38:50;3.40;;;3.20;;
6983;SDS011;3532;51.118;7.210;2023-02-28T07:41:16;3.20;;;2.90;;
6983;SDS011;3532;51.118;7.210;2023-02-28T07:43:42;3.17;;;2.88;;
6983;SDS011;3532;51.118;7.210;2023-02-28T07:46:09;4.07;;;2.93;;
6983;SDS011;3532;51.118;7.210;2023-02-28T07:48:36;3.67;;;3.38;;
6983;SDS011;3532;51.118;7.210;2023-02-28T07:51:01;4.80;;;3.67;;
6983;SDS011;3532;51.118;7.210;2023-02-28T07:53:27;3.17;;;2.93;;
6983;SDS011;3532;51.118;7.210;2023-02-28T07:55:56;3.83;;;2.93;;
6983;SDS011;3532;51.118;7.210;2023-02-28T07:58:22;4.88;;;3.03;;
6983;SDS011;3532;51.118;7.210;2023-02-28T08:00:48;3.70;;;3.40;;
6983;SDS011;3532;51.118;7.210;2023-02-28T08:03:14;3.23;;;2.93;;
6983;SDS011;3532;51.118;7.210;2023-02-28T08:05:42;3.30;;;3.00;;
6983;SDS011;3532;51.118;7.210;2023-02-28T08:08:08;3.10;;;2.90;;
6983;SDS011;3532;51.118;7.210;2023-02-28T08:10:33;3.47;;;2.93;;
6983;SDS011;3532;51.118;7.210;2023-02-28T08:13:00;4.32;;;3.13;;
6983;SDS011;3532;51.118;7.210;2023-02-28T08:15:25;4.07;;;3.13;;
6983;SDS011;3532;51.118;7.210;2023-02-28T08:17:50;5.00;;;2.97;;
6983;SDS011;3532;51.118;7.210;2023-02-28T08:20:16;3.40;;;3.13;;
6983;SDS011;3532;51.118;7.210;2023-02-28T08:22:41;3.43;;;3.13;;
6983;SDS011;3532;51.118;7.210;2023-02-28T08:25:07;3.33;;;3.03;;
6983;SDS011;3532;51.118;7.210;2023-02-28T08:27:33;3.60;;;2.80;;
6983;SDS011;3532;51.118;7.210;2023-02-28T08:29:58;3.80;;;3.27;;
6983;SDS011;3532;51.118;7.210;2023-02-28T08:32:23;4.27;;;3.47;;
6983;SDS011;3532;51.118;7.210;2023-02-28T08:34:49;3.20;;;2.90;;
6983;SDS011;3532;51.118;7.210;2023-02-28T08:37:15;3.00;;;2.80;;
6983;SDS011;3532;51.118;7.210;2023-02-28T08:39:40;2.83;;;2.63;;
6983;SDS011;3532;51.118;7.210;2023-02-28T08:42:05;3.17;;;2.93;;
6983;SDS011;3532;51.118;7.210;2023-02-28T08:44:31;3.23;;;2.40;;
6983;SDS011;3532;51.118;7.210;2023-02-28T08:46:56;3.30;;;3.00;;
6983;SDS011;3532;51.118;7.210;2023-02-28T08:49:21;3.20;;;2.70;;
6983;SDS011;3532;51.118;7.210;2023-02-28T08:51:47;4.20;;;3.00;;
6983;SDS011;3532;51.118;7.210;2023-02-28T08:54:12;2.87;;;2.63;;
6983;SDS011;3532;51.118;7.210;2023-02-28T08:56:37;2.73;;;2.43;;
6983;SDS011;3532;51.118;7.210;2023-02-28T08:59:03;2.90;;;2.65;;
6983;SDS011;3532;51.118;7.210;2023-02-28T09:01:29;4.07;;;2.87;;
6983;SDS011;3532;51.118;7.210;2023-02-28T09:03:55;4.63;;;2.73;;
6983;SDS011;3532;51.118;7.210;2023-02-28T09:06:22;3.08;;;2.70;;
6983;SDS011;3532;51.118;7.210;2023-02-28T09:08:49;3.28;;;2.97;;
6983;SDS011;3532;51.118;7.210;2023-02-28T09:11:14;3.17;;;2.97;;
6983;SDS011;3532;51.118;7.210;2023-02-28T09:13:40;6.70;;;2.87;;
6983;SDS011;3532;51.118;7.210;2023-02-28T09:16:06;3.03;;;2.83;;
6983;SDS011;3532;51.118;7.210;2023-02-28T09:18:34;2.95;;;2.70;;
6983;SDS011;3532;51.118;7.210;2023-02-28T09:21:02;3.15;;;2.85;;
6983;SDS011;3532;51.118;7.210;2023-02-28T09:23:36;2.60;;;2.40;;
6983;SDS011;3532;51.118;7.210;2023-02-28T09:26:03;3.15;;;2.58;;
6983;SDS011;3532;51.118;7.210;2023-02-28T09:28:28;2.93;;;2.73;;
6983;SDS011;3532;51.118;7.210;2023-02-28T09:30:54;2.53;;;2.33;;
6983;SDS011;3532;51.118;7.210;2023-02-28T09:33:20;3.00;;;2.77;;
6983;SDS011;3532;51.118;7.210;2023-02-28T09:35:46;3.80;;;2.80;;
6983;SDS011;3532;51.118;7.210;2023-02-28T09:38:12;2.97;;;2.40;;
6983;SDS011;3532;51.118;7.210;2023-02-28T09:41:00;2.63;;;2.43;;
6983;SDS011;3532;51.118;7.210;2023-02-28T09:43:25;3.45;;;3.13;;
6983;SDS011;3532;51.118;7.210;2023-02-28T09:45:55;2.97;;;2.75;;
6983;SDS011;3532;51.118;7.210;2023-02-28T09:48:27;2.80;;;2.60;;
6983;SDS011;3532;51.118;7.210;2023-02-28T09:51:04;3.72;;;3.42;;
6983;SDS011;3532;51.118;7.210;2023-02-28T09:53:31;3.42;;;2.75;;
6983;SDS011;3532;51.118;7.210;2023-02-28T09:56:11;4.43;;;2.65;;
6983;SDS011;3532;51.118;7.210;2023-02-28T09:58:47;2.55;;;2.25;;
6983;SDS011;3532;51.118;7.210;2023-02-28T10:01:29;2.97;;;2.78;;
6983;SDS011;3532;51.118;7.210;2023-02-28T10:04:11;2.80;;;2.45;;
6983;SDS011;3532;51.118;7.210;2023-02-28T10:06:46;2.90;;;2.70;;
6983;SDS011;3532;51.118;7.210;2023-02-28T10:09:16;2.88;;;2.58;;
6983;SDS011;3532;51.118;7.210;2023-02-28T10:11:45;2.80;;;2.60;;
6983;SDS011;3532;51.118;7.210;2023-02-28T10:14:18;2.45;;;2.25;;
6983;SDS011;3532;51.118;7.210;2023-02-28T10:20:13;3.17;;;2.58;;
6983;SDS011;3532;51.118;7.210;2023-02-28T10:22:39;3.85;;;3.20;;
6983;SDS011;3532;51.118;7.210;2023-02-28T10:25:18;3.33;;;3.03;;
6983;SDS011;3532;51.118;7.210;2023-02-28T10:27:49;2.80;;;2.60;;
6983;SDS011;3532;51.118;7.210;2023-02-28T10:30:14;3.40;;;3.08;;
6983;SDS011;3532;51.118;7.210;2023-02-28T10:32:40;3.10;;;2.80;;
6983;SDS011;3532;51.118;7.210;2023-02-28T10:35:14;3.28;;;2.92;;
6983;SDS011;3532;51.118;7.210;2023-02-28T10:37:42;3.08;;;2.67;;
6983;SDS011;3532;51.118;7.210;2023-02-28T10:40:32;3.05;;;2.75;;
6983;SDS011;3532;51.118;7.210;2023-02-28T10:43:04;2.97;;;2.70;;
6983;SDS011;3532;51.118;7.210;2023-02-28T10:45:39;2.72;;;2.53;;
6983;SDS011;3532;51.118;7.210;2023-02-28T10:48:27;3.67;;;3.17;;
6983;SDS011;3532;51.118;7.210;2023-02-28T10:50:55;2.50;;;2.30;;
6983;SDS011;3532;51.118;7.210;2023-02-28T10:58:24;3.80;;;3.30;;
6983;SDS011;3532;51.118;7.210;2023-02-28T11:00:51;3.60;;;3.30;;
6983;SDS011;3532;51.118;7.210;2023-02-28T11:03:50;3.95;;;3.30;;
6983;SDS011;3532;51.118;7.210;2023-02-28T11:06:13;3.67;;;2.78;;
6983;SDS011;3532;51.118;7.210;2023-02-28T11:08:45;3.92;;;3.55;;
6983;SDS011;3532;51.118;7.210;2023-02-28T11:11:12;3.00;;;2.80;;
6983;SDS011;3532;51.118;7.210;2023-02-28T11:13:37;4.70;;;3.37;;
6983;SDS011;3532;51.118;7.210;2023-02-28T11:16:10;3.78;;;3.03;;
6983;SDS011;3532;51.118;7.210;2023-02-28T11:18:39;3.35;;;3.05;;
6983;SDS011;3532;51.118;7.210;2023-02-28T11:21:07;8.18;;;2.70;;
6983;SDS011;3532;51.118;7.210;2023-02-28T11:23:33;3.07;;;2.87;;
6983;SDS011;3532;51.118;7.210;2023-02-28T11:26:02;3.60;;;3.30;;
6983;SDS011;3532;51.118;7.210;2023-02-28T11:28:34;4.07;;;3.25;;
6983;SDS011;3532;51.118;7.210;2023-02-28T11:31:24;3.10;;;2.80;;
6983;SDS011;3532;51.118;7.210;2023-02-28T11:36:22;3.60;;;3.30;;
6983;SDS011;3532;51.118;7.210;2023-02-28T11:38:56;3.63;;;3.33;;
6983;SDS011;3532;51.118;7.210;2023-02-28T11:46:41;3.40;;;3.10;;
6983;SDS011;3532;51.118;7.210;2023-02-28T11:49:21;4.13;;;3.15;;
6983;SDS011;3532;51.118;7.210;2023-02-28T11:52:01;3.50;;;2.80;;
6983;SDS011;3532;51.118;7.210;2023-02-28T12:05:57;3.92;;;3.60;;
6983;SDS011;3532;51.118;7.210;2023-02-28T12:13:37;5.10;;;3.27;;
6983;SDS011;3532;51.118;7.210;2023-02-28T12:16:24;3.53;;;3.23;;
6983;SDS011;3532;51.118;7.210;2023-02-28T12:21:38;3.77;;;3.37;;
6983;SDS011;3532;51.118;7.210;2023-02-28T12:27:06;2.97;;;2.77;;
6983;SDS011;3532;51.118;7.210;2023-02-28T12:29:41;3.27;;;2.97;;
6983;SDS011;3532;51.118;7.210;2023-02-28T12:34:52;2.53;;;2.33;;
6983;SDS011;3532;51.118;7.210;2023-02-28T12:40:19;3.77;;;3.20;;
6983;SDS011;3532;51.118;7.210;2023-02-28T12:42:51;3.43;;;2.40;;
6983;SDS011;3532;51.118;7.210;2023-02-28T12:47:44;3.20;;;2.90;;
6983;SDS011;3532;51.118;7.210;2023-02-28T12:50:13;3.03;;;2.83;;
6983;SDS011;3532;51.118;7.210;2023-02-28T12:52:47;3.73;;;3.43;;
6983;SDS011;3532;51.118;7.210;2023-02-28T13:00:47;2.87;;;2.67;;
6983;SDS011;3532;51.118;7.210;2023-02-28T13:06:24;5.30;;;3.20;;
6983;SDS011;3532;51.118;7.210;2023-02-28T13:09:30;3.20;;;2.90;;
6983;SDS011;3532;51.118;7.210;2023-02-28T13:11:53;3.97;;;3.27;;
6983;SDS011;3532;51.118;7.210;2023-02-28T13:17:09;5.13;;;3.67;;
6983;SDS011;3532;51.118;7.210;2023-02-28T13:19:37;4.10;;;3.50;;
6983;SDS011;3532;51.118;7.210;2023-02-28T13:22:04;4.30;;;3.17;;
6983;SDS011;3532;51.118;7.210;2023-02-28T13:29:36;5.63;;;3.20;;
6983;SDS011;3532;51.118;7.210;2023-02-28T13:34:30;3.33;;;3.03;;
6983;SDS011;3532;51.118;7.210;2023-02-28T13:47:30;3.43;;;3.13;;
6983;SDS011;3532;51.118;7.210;2023-02-28T13:52:55;3.50;;;3.07;;
6983;SDS011;3532;51.118;7.210;2023-02-28T13:55:37;3.17;;;2.87;;
6983;SDS011;3532;51.118;7.210;2023-02-28T14:00:39;5.23;;;4.03;;
6983;SDS011;3532;51.118;7.210;2023-02-28T14:06:38;3.13;;;2.93;;
6983;SDS011;3532;51.118;7.210;2023-02-28T14:08:58;3.13;;;2.90;;
6983;SDS011;3532;51.118;7.210;2023-02-28T14:11:32;4.00;;;3.20;;
6983;SDS011;3532;51.118;7.210;2023-02-28T14:13:59;3.33;;;3.03;;
6983;SDS011;3532;51.118;7.210;2023-02-28T14:16:26;3.27;;;3.03;;
6983;SDS011;3532;51.118;7.210;2023-02-28T14:21:26;3.40;;;3.10;;
6983;SDS011;3532;51.118;7.210;2023-02-28T14:29:38;3.67;;;3.20;;
6983;SDS011;3532;51.118;7.210;2023-02-28T14:35:01;3.23;;;2.93;;
6983;SDS011;3532;51.118;7.210;2023-02-28T14:37:32;3.27;;;2.97;;
6983;SDS011;3532;51.118;7.210;2023-02-28T14:39:58;3.30;;;3.00;;
6983;SDS011;3532;51.118;7.210;2023-02-28T14:44:55;3.87;;;3.50;;
6983;SDS011;3532;51.118;7.210;2023-02-28T14:47:23;4.07;;;3.20;;
6983;SDS011;3532;51.118;7.210;2023-02-28T14:49:52;3.23;;;2.93;;
6983;SDS011;3532;51.118;7.210;2023-02-28T14:54:53;3.90;;;3.23;;
6983;SDS011;3532;51.118;7.210;2023-02-28T14:57:21;3.43;;;2.90;;
6983;SDS011;3532;51.118;7.210;2023-02-28T15:02:29;4.63;;;3.30;;
6983;SDS011;3532;51.118;7.210;2023-02-28T15:04:57;3.60;;;3.30;;
6983;SDS011;3532;51.118;7.210;2023-02-28T15:07:24;3.50;;;3.20;;
6983;SDS011;3532;51.118;7.210;2023-02-28T15:12:44;3.37;;;3.10;;
6983;SDS011;3532;51.118;7.210;2023-02-28T15:15:15;5.07;;;3.60;;
6983;SDS011;3532;51.118;7.210;2023-02-28T15:17:42;3.73;;;3.43;;
6983;SDS011;3532;51.118;7.210;2023-02-28T15:20:11;4.30;;;3.37;;
6983;SDS011;3532;51.118;7.210;2023-02-28T15:22:37;3.17;;;2.93;;
6983;SDS011;3532;51.118;7.210;2023-02-28T15:25:03;5.67;;;3.57;;
6983;SDS011;3532;51.118;7.210;2023-02-28T15:27:31;3.60;;;3.30;;
6983;SDS011;3532;51.118;7.210;2023-02-28T15:30:04;3.53;;;3.23;;
6983;SDS011;3532;51.118;7.210;2023-02-28T15:32:33;3.10;;;2.90;;
6983;SDS011;3532;51.118;7.210;2023-02-28T15:35:16;4.60;;;3.90;;
6983;SDS011;3532;51.118;7.210;2023-02-28T15:37:55;3.40;;;3.10;;
6983;SDS011;3532;51.118;7.210;2023-02-28T15:40:29;3.20;;;2.90;;
6983;SDS011;3532;51.118;7.210;2023-02-28T15:43:15;4.83;;;4.03;;
6983;SDS011;3532;51.118;7.210;2023-02-28T15:45:46;3.77;;;3.40;;
6983;SDS011;3532;51.118;7.210;2023-02-28T15:48:17;4.53;;;4.10;;
6983;SDS011;3532;51.118;7.210;2023-02-28T15:50:43;6.60;;;5.93;;
6983;SDS011;3532;51.118;7.210;2023-02-28T15:53:13;3.67;;;3.37;;
6983;SDS011;3532;51.118;7.210;2023-02-28T15:55:40;3.73;;;3.33;;
6983;SDS011;3532;51.118;7.210;2023-02-28T15:58:07;3.30;;;3.00;;
6983;SDS011;3532;51.118;7.210;2023-02-28T16:00:36;3.60;;;3.10;;
6983;SDS011;3532;51.118;7.210;2023-02-28T16:03:01;4.93;;;3.40;;
6983;SDS011;3532;51.118;7.210;2023-02-28T16:08:53;3.73;;;3.43;;
6983;SDS011;3532;51.118;7.210;2023-02-28T16:11:20;3.73;;;3.43;;
6983;SDS011;3532;51.118;7.210;2023-02-28T16:13:45;4.33;;;3.60;;
6983;SDS011;3532;51.118;7.210;2023-02-28T16:16:15;5.23;;;3.63;;
6983;SDS011;3532;51.118;7.210;2023-02-28T16:18:41;4.43;;;4.00;;
6983;SDS011;3532;51.118;7.210;2023-02-28T16:21:08;3.57;;;3.27;;
6983;SDS011;3532;51.118;7.210;2023-02-28T16:23:33;3.27;;;2.87;;
6983;SDS011;3532;51.118;7.210;2023-02-28T16:25:59;4.10;;;3.60;;
6983;SDS011;3532;51.118;7.210;2023-02-28T16:28:25;4.20;;;3.43;;
6983;SDS011;3532;51.118;7.210;2023-02-28T16:30:57;5.03;;;3.50;;
6983;SDS011;3532;51.118;7.210;2023-02-28T16:33:24;4.07;;;3.50;;
6983;SDS011;3532;51.118;7.210;2023-02-28T16:35:50;3.80;;;3.37;;
6983;SDS011;3532;51.118;7.210;2023-02-28T16:38:15;4.27;;;3.87;;
6983;SDS011;3532;51.118;7.210;2023-02-28T16:40:40;5.53;;;3.77;;
6983;SDS011;3532;51.118;7.210;2023-02-28T16:43:16;4.13;;;3.60;;
6983;SDS011;3532;51.118;7.210;2023-02-28T16:45:43;4.90;;;4.27;;
6983;SDS011;3532;51.118;7.210;2023-02-28T16:48:13;5.10;;;4.50;;
6983;SDS011;3532;51.118;7.210;2023-02-28T16:50:40;4.97;;;3.90;;
6983;SDS011;3532;51.118;7.210;2023-02-28T16:53:05;4.40;;;3.80;;
6983;SDS011;3532;51.118;7.210;2023-02-28T16:55:31;5.90;;;3.87;;
6983;SDS011;3532;51.118;7.210;2023-02-28T16:57:57;4.40;;;4.00;;
6983;SDS011;3532;51.118;7.210;2023-02-28T17:00:24;6.80;;;4.27;;
6983;SDS011;3532;51.118;7.210;2023-02-28T17:02:50;4.23;;;3.83;;
6983;SDS011;3532;51.118;7.210;2023-02-28T17:05:15;6.67;;;4.30;;
6983;SDS011;3532;51.118;7.210;2023-02-28T17:07:42;6.57;;;5.50;;
6983;SDS011;3532;51.118;7.210;2023-02-28T17:10:10;5.87;;;4.10;;
6983;SDS011;3532;51.118;7.210;2023-02-28T17:12:39;6.90;;;5.13;;
6983;SDS011;3532;51.118;7.210;2023-02-28T17:15:04;7.13;;;5.83;;
6983;SDS011;3532;51.118;7.210;2023-02-28T17:17:31;5.43;;;4.40;;
6983;SDS011;3532;51.118;7.210;2023-02-28T17:19:56;5.47;;;4.97;;
6983;SDS011;3532;51.118;7.210;2023-02-28T17:22:21;5.50;;;4.90;;
6983;SDS011;3532;51.118;7.210;2023-02-28T17:24:47;4.90;;;4.50;;
6983;SDS011;3532;51.118;7.210;2023-02-28T17:27:12;8.20;;;6.10;;
6983;SDS011;3532;51.118;7.210;2023-02-28T17:29:38;5.10;;;4.70;;
6983;SDS011;3532;51.118;7.210;2023-02-28T17:32:03;7.70;;;4.93;;
6983;SDS011;3532;51.118;7.210;2023-02-28T17:34:29;5.13;;;4.27;;
6983;SDS011;3532;51.118;7.210;2023-02-28T17:36:54;6.32;;;5.20;;
6983;SDS011;3532;51.118;7.210;2023-02-28T17:39:19;6.10;;;5.00;;
6983;SDS011;3532;51.118;7.210;2023-02-28T17:41:49;4.87;;;4.47;;
6983;SDS011;3532;51.118;7.210;2023-02-28T17:44:23;4.20;;;3.83;;
6983;SDS011;3532;51.118;7.210;2023-02-28T17:46:50;6.03;;;4.43;;